sensor_id;sensor_type;location;lat;lon;timestamp;pressure;altitude;pressure_sealevel;temperature;humidity
9261;BME280;4667;42.726;23.252;2022-12-13T00:00:00;94693.81;;;0.47;nan
9261;BME280;4667;42.726;23.252;2022-12-13T00:02:26;94699.31;;;0.54;nan
9261;BME280;4667;42.726;23.252;2022-12-13T00:04:53;94700.31;;;0.62;nan
9261;BME280;4667;42.726;23.252;2022-12-13T00:07:20;94702.53;;;0.60;nan
9261;BME280;4667;42.726;23.252;2022-12-13T00:09:47;94704.66;;;0.54;nan
9261;BME280;4667;42.726;23.252;2022-12-13T00:12:15;94706.78;;;0.36;nan
9261;BME280;4667;42.726;23.252;2022-12-13T00:14:44;94703.91;;;0.42;nan
9261;BME280;4667;42.726;23.252;2022-12-13T00:17:17;94704.66;;;0.42;nan
9261;BME280;4667;42.726;23.252;2022-12-13T00:19:50;94710.69;;;0.27;nan
9261;BME280;4667;42.726;23.252;2022-12-13T00:22:20;94709.34;;;0.09;nan
9261;BME280;4667;42.726;23.252;2022-12-13T00:24:47;94697.81;;;0.17;nan
9261;BME280;4667;42.726;23.252;2022-12-13T00:27:22;94713.13;;;0.20;nan
9261;BME280;4667;42.726;23.252;2022-12-13T00:29:50;94706.13;;;0.15;nan
9261;BME280;4667;42.726;23.252;2022-12-13T00:32:17;94702.16;;;0.21;nan
9261;BME280;4667;42.726;23.252;2022-12-13T00:34:43;94705.91;;;0.20;nan
9261;BME280;4667;42.726;23.252;2022-12-13T00:37:11;94710.91;;;0.22;nan
9261;BME280;4667;42.726;23.252;2022-12-13T00:39:37;94716.34;;;0.13;nan
9261;BME280;4667;42.726;23.252;2022-12-13T00:42:04;94719.69;;;0.10;nan
9261;BME280;4667;42.726;23.252;2022-12-13T00:44:33;94720.00;;;0.21;nan
9261;BME280;4667;42.726;23.252;2022-12-13T00:46:59;94719.00;;;0.25;nan
9261;BME280;4667;42.726;23.252;2022-12-13T00:49:26;94717.44;;;0.24;nan
9261;BME280;4667;42.726;23.252;2022-12-13T00:51:53;94711.69;;;0.22;nan
9261;BME280;4667;42.726;23.252;2022-12-13T00:54:19;94724.78;;;0.15;nan
9261;BME280;4667;42.726;23.252;2022-12-13T00:56:46;94721.66;;;0.13;nan
9261;BME280;4667;42.726;23.252;2022-12-13T00:59:15;94717.56;;;0.16;nan
9261;BME280;4667;42.726;23.252;2022-12-13T01:01:43;94725.09;;;0.14;nan
9261;BME280;4667;42.726;23.252;2022-12-13T01:04:10;94723.44;;;0.09;nan
9261;BME280;4667;42.726;23.252;2022-12-13T01:06:39;94722.78;;;0.00;nan
9261;BME280;4667;42.726;23.252;2022-12-13T01:09:08;94722.66;;;0.09;nan
9261;BME280;4667;42.726;23.252;2022-12-13T01:11:35;94731.44;;;0.09;nan
9261;BME280;4667;42.726;23.252;2022-12-13T01:14:02;94720.78;;;0.09;nan
9261;BME280;4667;42.726;23.252;2022-12-13T01:16:29;94729.31;;;0.15;nan
9261;BME280;4667;42.726;23.252;2022-12-13T01:18:57;94722.22;;;0.19;nan
9261;BME280;4667;42.726;23.252;2022-12-13T01:21:24;94721.34;;;0.15;nan
9261;BME280;4667;42.726;23.252;2022-12-13T01:23:50;94725.78;;;0.23;nan
9261;BME280;4667;42.726;23.252;2022-12-13T01:26:19;94721.56;;;0.22;nan
9261;BME280;4667;42.726;23.252;2022-12-13T01:28:47;94718.44;;;0.20;nan
9261;BME280;4667;42.726;23.252;2022-12-13T01:31:17;94719.44;;;0.27;nan
9261;BME280;4667;42.726;23.252;2022-12-13T01:33:45;94715.69;;;0.28;nan
9261;BME280;4667;42.726;23.252;2022-12-13T01:36:15;94716.34;;;0.25;nan
9261;BME280;4667;42.726;23.252;2022-12-13T01:38:42;94728.00;;;0.33;nan
9261;BME280;4667;42.726;23.252;2022-12-13T01:41:12;94720.09;;;0.36;nan
9261;BME280;4667;42.726;23.252;2022-12-13T01:43:54;94723.44;;;0.33;nan
9261;BME280;4667;42.726;23.252;2022-12-13T01:46:22;94724.31;;;0.13;nan
9261;BME280;4667;42.726;23.252;2022-12-13T01:48:53;94732.53;;;0.32;nan
9261;BME280;4667;42.726;23.252;2022-12-13T01:51:28;94730.97;;;0.31;nan
9261;BME280;4667;42.726;23.252;2022-12-13T01:53:57;94728.31;;;0.31;nan
9261;BME280;4667;42.726;23.252;2022-12-13T01:56:30;94721.78;;;0.29;nan
9261;BME280;4667;42.726;23.252;2022-12-13T01:58:59;94729.09;;;0.32;nan
9261;BME280;4667;42.726;23.252;2022-12-13T02:01:28;94729.31;;;0.39;nan
9261;BME280;4667;42.726;23.252;2022-12-13T02:03:55;94726.88;;;0.34;nan
9261;BME280;4667;42.726;23.252;2022-12-13T02:06:29;94722.44;;;0.14;nan
9261;BME280;4667;42.726;23.252;2022-12-13T02:08:59;94720.31;;;0.31;nan
9261;BME280;4667;42.726;23.252;2022-12-13T02:11:26;94724.88;;;0.43;nan
9261;BME280;4667;42.726;23.252;2022-12-13T02:13:54;94722.88;;;0.40;nan
9261;BME280;4667;42.726;23.252;2022-12-13T02:16:38;94725.22;;;0.42;nan
9261;BME280;4667;42.726;23.252;2022-12-13T02:19:40;94724.66;;;0.36;nan
9261;BME280;4667;42.726;23.252;2022-12-13T02:22:26;94728.78;;;0.33;nan
9261;BME280;4667;42.726;23.252;2022-12-13T02:25:11;94729.09;;;0.20;nan
9261;BME280;4667;42.726;23.252;2022-12-13T02:27:49;94726.09;;;0.21;nan
9261;BME280;4667;42.726;23.252;2022-12-13T02:30:25;94734.41;;;0.20;nan
9261;BME280;4667;42.726;23.252;2022-12-13T02:36:05;94729.66;;;0.13;nan
9261;BME280;4667;42.726;23.252;2022-12-13T02:38:38;94734.41;;;0.08;nan
9261;BME280;4667;42.726;23.252;2022-12-13T02:41:15;94737.09;;;0.20;nan
9261;BME280;4667;42.726;23.252;2022-12-13T02:43:47;94742.97;;;0.13;nan
9261;BME280;4667;42.726;23.252;2022-12-13T02:46:19;94751.06;;;0.05;nan
9261;BME280;4667;42.726;23.252;2022-12-13T02:48:48;94734.63;;;-0.10;nan
9261;BME280;4667;42.726;23.252;2022-12-13T02:51:18;94743.50;;;-0.06;nan
9261;BME280;4667;42.726;23.252;2022-12-13T02:53:46;94737.50;;;-0.15;nan
9261;BME280;4667;42.726;23.252;2022-12-13T02:56:13;94743.81;;;-0.19;nan
9261;BME280;4667;42.726;23.252;2022-12-13T02:58:43;94740.84;;;-0.51;nan
9261;BME280;4667;42.726;23.252;2022-12-13T03:01:21;94752.56;;;-0.64;nan
9261;BME280;4667;42.726;23.252;2022-12-13T03:04:00;94744.47;;;-0.67;nan
9261;BME280;4667;42.726;23.252;2022-12-13T03:06:38;94740.78;;;-0.75;nan
9261;BME280;4667;42.726;23.252;2022-12-13T03:09:17;94751.28;;;-0.78;nan
9261;BME280;4667;42.726;23.252;2022-12-13T03:11:58;94748.94;;;-0.80;nan
9261;BME280;4667;42.726;23.252;2022-12-13T03:14:55;94749.31;;;-1.02;nan
9261;BME280;4667;42.726;23.252;2022-12-13T03:17:26;94747.78;;;-1.12;nan
9261;BME280;4667;42.726;23.252;2022-12-13T03:19:55;94746.13;;;-1.16;nan
9261;BME280;4667;42.726;23.252;2022-12-13T03:22:22;94739.38;;;-1.14;nan
9261;BME280;4667;42.726;23.252;2022-12-13T03:24:50;94744.69;;;-1.14;nan
9261;BME280;4667;42.726;23.252;2022-12-13T03:27:17;94748.47;;;-1.15;nan
9261;BME280;4667;42.726;23.252;2022-12-13T03:29:44;94747.41;;;-1.23;nan
9261;BME280;4667;42.726;23.252;2022-12-13T03:32:11;94751.69;;;-1.09;nan
9261;BME280;4667;42.726;23.252;2022-12-13T03:34:39;94746.56;;;-1.14;nan
9261;BME280;4667;42.726;23.252;2022-12-13T03:37:05;94748.00;;;-1.17;nan
9261;BME280;4667;42.726;23.252;2022-12-13T03:39:33;94751.94;;;-1.23;nan
9261;BME280;4667;42.726;23.252;2022-12-13T03:41:59;94745.19;;;-1.41;nan
9261;BME280;4667;42.726;23.252;2022-12-13T03:44:26;94748.31;;;-1.39;nan
9261;BME280;4667;42.726;23.252;2022-12-13T03:46:53;94750.31;;;-1.36;nan
9261;BME280;4667;42.726;23.252;2022-12-13T03:49:20;94753.88;;;-1.32;nan
9261;BME280;4667;42.726;23.252;2022-12-13T03:51:48;94762.19;;;-1.34;nan
9261;BME280;4667;42.726;23.252;2022-12-13T03:54:15;94767.53;;;-1.42;nan
9261;BME280;4667;42.726;23.252;2022-12-13T03:56:42;94773.63;;;-1.71;nan
9261;BME280;4667;42.726;23.252;2022-12-13T03:59:09;94774.09;;;-1.69;nan
9261;BME280;4667;42.726;23.252;2022-12-13T04:01:35;94777.53;;;-1.69;nan
9261;BME280;4667;42.726;23.252;2022-12-13T04:04:02;94777.13;;;-1.79;nan
9261;BME280;4667;42.726;23.252;2022-12-13T04:06:29;94790.41;;;-1.88;nan
9261;BME280;4667;42.726;23.252;2022-12-13T04:08:57;94788.22;;;-1.86;nan
9261;BME280;4667;42.726;23.252;2022-12-13T04:11:23;94796.41;;;-1.61;nan
9261;BME280;4667;42.726;23.252;2022-12-13T04:14:02;94798.75;;;-1.69;nan
9261;BME280;4667;42.726;23.252;2022-12-13T04:16:29;94800.09;;;-1.54;nan
9261;BME280;4667;42.726;23.252;2022-12-13T04:18:56;94807.88;;;-1.49;nan
9261;BME280;4667;42.726;23.252;2022-12-13T04:21:22;94806.84;;;-1.56;nan
9261;BME280;4667;42.726;23.252;2022-12-13T04:23:49;94813.63;;;-1.38;nan
9261;BME280;4667;42.726;23.252;2022-12-13T04:26:17;94813.81;;;-1.43;nan
9261;BME280;4667;42.726;23.252;2022-12-13T04:28:44;94819.44;;;-1.45;nan
9261;BME280;4667;42.726;23.252;2022-12-13T04:31:11;94823.66;;;-1.52;nan
9261;BME280;4667;42.726;23.252;2022-12-13T04:33:39;94825.47;;;-1.36;nan
9261;BME280;4667;42.726;23.252;2022-12-13T04:36:23;94829.56;;;-1.38;nan
9261;BME280;4667;42.726;23.252;2022-12-13T04:38:52;94846.44;;;-1.81;nan
9261;BME280;4667;42.726;23.252;2022-12-13T04:41:23;94833.47;;;-1.82;nan
9261;BME280;4667;42.726;23.252;2022-12-13T04:43:53;94835.00;;;-1.73;nan
9261;BME280;4667;42.726;23.252;2022-12-13T04:46:26;94840.41;;;-1.60;nan
9261;BME280;4667;42.726;23.252;2022-12-13T04:48:53;94852.66;;;-1.77;nan
9261;BME280;4667;42.726;23.252;2022-12-13T04:51:27;94859.97;;;-1.65;nan
9261;BME280;4667;42.726;23.252;2022-12-13T04:53:56;94863.19;;;-1.51;nan
9261;BME280;4667;42.726;23.252;2022-12-13T04:56:26;94849.22;;;-1.39;nan
9261;BME280;4667;42.726;23.252;2022-12-13T04:58:56;94859.78;;;-1.60;nan
9261;BME280;4667;42.726;23.252;2022-12-13T05:01:25;94847.88;;;-1.54;nan
9261;BME280;4667;42.726;23.252;2022-12-13T05:03:52;94848.22;;;-1.55;nan
9261;BME280;4667;42.726;23.252;2022-12-13T05:06:19;94851.00;;;-1.52;nan
9261;BME280;4667;42.726;23.252;2022-12-13T05:08:47;94861.50;;;-1.55;nan
9261;BME280;4667;42.726;23.252;2022-12-13T05:11:17;94855.34;;;-1.47;nan
9261;BME280;4667;42.726;23.252;2022-12-13T05:13:53;94853.66;;;-1.52;nan
9261;BME280;4667;42.726;23.252;2022-12-13T05:16:23;94855.34;;;-1.47;nan
9261;BME280;4667;42.726;23.252;2022-12-13T05:18:50;94859.00;;;-1.60;nan
9261;BME280;4667;42.726;23.252;2022-12-13T05:21:18;94853.25;;;-1.71;nan
9261;BME280;4667;42.726;23.252;2022-12-13T05:23:45;94860.13;;;-1.70;nan
9261;BME280;4667;42.726;23.252;2022-12-13T05:26:12;94861.84;;;-1.66;nan
9261;BME280;4667;42.726;23.252;2022-12-13T05:28:38;94862.06;;;-1.88;nan
9261;BME280;4667;42.726;23.252;2022-12-13T05:31:08;94867.81;;;-1.77;nan
9261;BME280;4667;42.726;23.252;2022-12-13T05:33:35;94869.56;;;-1.90;nan
9261;BME280;4667;42.726;23.252;2022-12-13T05:36:02;94880.63;;;-1.79;nan
9261;BME280;4667;42.726;23.252;2022-12-13T05:38:30;94877.31;;;-1.76;nan
9261;BME280;4667;42.726;23.252;2022-12-13T05:40:58;94878.97;;;-1.54;nan
9261;BME280;4667;42.726;23.252;2022-12-13T05:43:25;94891.56;;;-1.43;nan
9261;BME280;4667;42.726;23.252;2022-12-13T05:45:52;94884.03;;;-1.32;nan
9261;BME280;4667;42.726;23.252;2022-12-13T05:48:21;94880.72;;;-1.20;nan
9261;BME280;4667;42.726;23.252;2022-12-13T05:50:47;94883.00;;;-1.48;nan
9261;BME280;4667;42.726;23.252;2022-12-13T05:53:14;94884.38;;;-1.42;nan
9261;BME280;4667;42.726;23.252;2022-12-13T05:55:41;94889.28;;;-1.53;nan
9261;BME280;4667;42.726;23.252;2022-12-13T05:58:09;94903.94;;;-1.47;nan
9261;BME280;4667;42.726;23.252;2022-12-13T06:00:39;94913.97;;;-1.52;nan
9261;BME280;4667;42.726;23.252;2022-12-13T06:03:06;94918.88;;;-1.34;nan
9261;BME280;4667;42.726;23.252;2022-12-13T06:05:34;94922.28;;;-1.25;nan
9261;BME280;4667;42.726;23.252;2022-12-13T06:08:01;94919.19;;;-1.35;nan
9261;BME280;4667;42.726;23.252;2022-12-13T06:10:57;94912.19;;;-1.31;nan
9261;BME280;4667;42.726;23.252;2022-12-13T06:14:03;94918.72;;;-1.29;nan
9261;BME280;4667;42.726;23.252;2022-12-13T06:35:20;94915.06;;;-1.15;nan
9261;BME280;4667;42.726;23.252;2022-12-13T06:37:50;94913.47;;;-1.08;nan
9261;BME280;4667;42.726;23.252;2022-12-13T06:40:17;94909.06;;;-1.04;nan
9261;BME280;4667;42.726;23.252;2022-12-13T06:42:44;94917.66;;;-1.07;nan
9261;BME280;4667;42.726;23.252;2022-12-13T06:45:10;94928.03;;;-1.14;nan
9261;BME280;4667;42.726;23.252;2022-12-13T06:47:37;94921.53;;;-0.96;nan
9261;BME280;4667;42.726;23.252;2022-12-13T06:50:05;94925.19;;;-1.09;nan
9261;BME280;4667;42.726;23.252;2022-12-13T06:52:34;94921.53;;;-0.96;nan
9261;BME280;4667;42.726;23.252;2022-12-13T06:55:01;94920.41;;;-0.95;nan
9261;BME280;4667;42.726;23.252;2022-12-13T06:57:30;94924.28;;;-0.84;nan
9261;BME280;4667;42.726;23.252;2022-12-13T06:59:57;94922.22;;;-0.78;nan
9261;BME280;4667;42.726;23.252;2022-12-13T07:02:24;94921.75;;;-0.80;nan
9261;BME280;4667;42.726;23.252;2022-12-13T07:04:51;94912.50;;;-0.74;nan
9261;BME280;4667;42.726;23.252;2022-12-13T07:07:17;94919.78;;;-0.62;nan
9261;BME280;4667;42.726;23.252;2022-12-13T07:09:45;94915.09;;;-0.65;nan
9261;BME280;4667;42.726;23.252;2022-12-13T07:12:12;94927.75;;;-0.62;nan
9261;BME280;4667;42.726;23.252;2022-12-13T07:14:39;94930.28;;;-0.66;nan
9261;BME280;4667;42.726;23.252;2022-12-13T07:17:05;94933.19;;;-0.59;nan
9261;BME280;4667;42.726;23.252;2022-12-13T07:19:32;94937.38;;;-0.49;nan
9261;BME280;4667;42.726;23.252;2022-12-13T07:21:59;94934.50;;;-0.44;nan
9261;BME280;4667;42.726;23.252;2022-12-13T07:24:25;94935.91;;;-0.47;nan
9261;BME280;4667;42.726;23.252;2022-12-13T07:26:54;94949.81;;;-0.41;nan
9261;BME280;4667;42.726;23.252;2022-12-13T07:29:21;94944.19;;;-0.19;nan
9261;BME280;4667;42.726;23.252;2022-12-13T07:31:47;94946.78;;;-0.31;nan
9261;BME280;4667;42.726;23.252;2022-12-13T07:34:14;94945.50;;;-0.25;nan
9261;BME280;4667;42.726;23.252;2022-12-13T07:36:41;94948.28;;;-0.01;nan
9261;BME280;4667;42.726;23.252;2022-12-13T07:39:08;94954.06;;;-0.19;nan
9261;BME280;4667;42.726;23.252;2022-12-13T07:41:35;94947.94;;;0.01;nan
9261;BME280;4667;42.726;23.252;2022-12-13T07:44:03;94941.19;;;-0.17;nan
9261;BME280;4667;42.726;23.252;2022-12-13T07:46:30;94951.50;;;0.05;nan
9261;BME280;4667;42.726;23.252;2022-12-13T07:48:57;94951.25;;;-0.02;nan
9261;BME280;4667;42.726;23.252;2022-12-13T07:51:23;94954.84;;;-0.19;nan
9261;BME280;4667;42.726;23.252;2022-12-13T07:53:51;94954.75;;;-0.10;nan
9261;BME280;4667;42.726;23.252;2022-12-13T07:56:18;94954.56;;;-0.26;nan
9261;BME280;4667;42.726;23.252;2022-12-13T07:58:45;94958.66;;;-0.28;nan
9261;BME280;4667;42.726;23.252;2022-12-13T08:01:13;94954.78;;;-0.31;nan
9261;BME280;4667;42.726;23.252;2022-12-13T08:03:40;94954.31;;;-0.12;nan
9261;BME280;4667;42.726;23.252;2022-12-13T08:06:08;94953.78;;;-0.06;nan
9261;BME280;4667;42.726;23.252;2022-12-13T08:08:36;94964.03;;;0.05;nan
9261;BME280;4667;42.726;23.252;2022-12-13T08:11:05;94959.75;;;-0.09;nan
9261;BME280;4667;42.726;23.252;2022-12-13T08:13:33;94965.78;;;-0.41;nan
9261;BME280;4667;42.726;23.252;2022-12-13T08:16:01;94975.59;;;-0.33;nan
9261;BME280;4667;42.726;23.252;2022-12-13T08:18:29;94970.72;;;-0.31;nan
9261;BME280;4667;42.726;23.252;2022-12-13T08:20:57;94975.47;;;-0.16;nan
9261;BME280;4667;42.726;23.252;2022-12-13T08:23:24;94971.81;;;0.10;nan
9261;BME280;4667;42.726;23.252;2022-12-13T08:25:52;94975.72;;;-0.09;nan
9261;BME280;4667;42.726;23.252;2022-12-13T08:28:19;94981.41;;;-0.39;nan
9261;BME280;4667;42.726;23.252;2022-12-13T08:30:46;94969.09;;;-0.03;nan
9261;BME280;4667;42.726;23.252;2022-12-13T08:33:13;94960.25;;;0.26;nan
9261;BME280;4667;42.726;23.252;2022-12-13T08:35:41;94957.53;;;0.14;nan
9261;BME280;4667;42.726;23.252;2022-12-13T08:38:09;94955.06;;;0.09;nan
9261;BME280;4667;42.726;23.252;2022-12-13T08:40:36;94955.28;;;0.37;nan
9261;BME280;4667;42.726;23.252;2022-12-13T08:43:04;94958.53;;;0.55;nan
9261;BME280;4667;42.726;23.252;2022-12-13T08:45:31;94953.19;;;0.88;nan
9261;BME280;4667;42.726;23.252;2022-12-13T08:47:59;94944.06;;;0.89;nan
9261;BME280;4667;42.726;23.252;2022-12-13T08:50:29;94954.47;;;0.57;nan
9261;BME280;4667;42.726;23.252;2022-12-13T08:52:57;94942.53;;;0.43;nan
9261;BME280;4667;42.726;23.252;2022-12-13T08:55:25;94947.06;;;0.75;nan
9261;BME280;4667;42.726;23.252;2022-12-13T08:57:52;94925.59;;;0.83;nan
9261;BME280;4667;42.726;23.252;2022-12-13T09:00:19;94923.53;;;0.89;nan
9261;BME280;4667;42.726;23.252;2022-12-13T09:02:46;94919.94;;;0.85;nan
9261;BME280;4667;42.726;23.252;2022-12-13T09:05:13;94912.41;;;0.99;nan
9261;BME280;4667;42.726;23.252;2022-12-13T09:07:40;94909.25;;;1.46;nan
9261;BME280;4667;42.726;23.252;2022-12-13T09:10:10;94912.34;;;1.72;nan
9261;BME280;4667;42.726;23.252;2022-12-13T09:12:40;94911.50;;;1.96;nan
9261;BME280;4667;42.726;23.252;2022-12-13T09:15:09;94911.34;;;2.48;nan
9261;BME280;4667;42.726;23.252;2022-12-13T09:17:37;94902.41;;;3.19;nan
9261;BME280;4667;42.726;23.252;2022-12-13T09:20:06;94894.28;;;3.31;nan
9261;BME280;4667;42.726;23.252;2022-12-13T09:22:33;94887.28;;;3.61;nan
9261;BME280;4667;42.726;23.252;2022-12-13T09:25:00;94886.50;;;3.26;nan
9261;BME280;4667;42.726;23.252;2022-12-13T09:27:28;94880.31;;;3.57;nan
9261;BME280;4667;42.726;23.252;2022-12-13T09:29:55;94877.81;;;3.13;nan
9261;BME280;4667;42.726;23.252;2022-12-13T09:32:22;94890.06;;;3.14;nan
9261;BME280;4667;42.726;23.252;2022-12-13T09:34:49;94890.66;;;3.23;nan
9261;BME280;4667;42.726;23.252;2022-12-13T09:37:16;94887.91;;;3.55;nan
9261;BME280;4667;42.726;23.252;2022-12-13T09:39:43;94884.00;;;3.68;nan
9261;BME280;4667;42.726;23.252;2022-12-13T09:42:15;94878.44;;;3.42;nan
9261;BME280;4667;42.726;23.252;2022-12-13T09:44:49;94878.13;;;3.27;nan
9261;BME280;4667;42.726;23.252;2022-12-13T09:47:29;94877.44;;;3.31;nan
9261;BME280;4667;42.726;23.252;2022-12-13T09:50:05;94874.66;;;3.43;nan
9261;BME280;4667;42.726;23.252;2022-12-13T09:52:36;94876.66;;;3.84;nan
9261;BME280;4667;42.726;23.252;2022-12-13T09:55:17;94876.28;;;4.24;nan
9261;BME280;4667;42.726;23.252;2022-12-13T09:57:45;94876.31;;;4.47;nan
9261;BME280;4667;42.726;23.252;2022-12-13T10:00:16;94880.56;;;4.71;nan
9261;BME280;4667;42.726;23.252;2022-12-13T10:02:46;94872.94;;;4.96;nan
9261;BME280;4667;42.726;23.252;2022-12-13T10:05:19;94876.47;;;5.26;nan
9261;BME280;4667;42.726;23.252;2022-12-13T10:07:47;94867.78;;;5.62;nan
9261;BME280;4667;42.726;23.252;2022-12-13T10:10:15;94869.78;;;6.25;nan
9261;BME280;4667;42.726;23.252;2022-12-13T10:12:45;94869.19;;;6.42;nan
9261;BME280;4667;42.726;23.252;2022-12-13T10:15:19;94862.66;;;6.84;nan
9261;BME280;4667;42.726;23.252;2022-12-13T10:17:47;94856.38;;;7.13;nan
9261;BME280;4667;42.726;23.252;2022-12-13T10:20:17;94851.84;;;7.28;nan
9261;BME280;4667;42.726;23.252;2022-12-13T10:22:44;94839.50;;;7.89;nan
9261;BME280;4667;42.726;23.252;2022-12-13T10:25:11;94833.78;;;8.11;nan
9261;BME280;4667;42.726;23.252;2022-12-13T10:27:40;94828.97;;;8.67;nan
9261;BME280;4667;42.726;23.252;2022-12-13T10:30:09;94820.03;;;9.62;nan
9261;BME280;4667;42.726;23.252;2022-12-13T10:32:51;94834.34;;;8.59;nan
9261;BME280;4667;42.726;23.252;2022-12-13T10:35:23;94819.31;;;8.83;nan
9261;BME280;4667;42.726;23.252;2022-12-13T10:37:50;94823.19;;;9.04;nan
9261;BME280;4667;42.726;23.252;2022-12-13T10:40:30;94812.75;;;9.30;nan
9261;BME280;4667;42.726;23.252;2022-12-13T10:43:11;94818.97;;;8.81;nan
9261;BME280;4667;42.726;23.252;2022-12-13T10:45:38;94814.69;;;8.73;nan
9261;BME280;4667;42.726;23.252;2022-12-13T10:48:17;94808.25;;;7.12;nan
9261;BME280;4667;42.726;23.252;2022-12-13T10:50:55;94810.59;;;7.17;nan
9261;BME280;4667;42.726;23.252;2022-12-13T10:53:29;94811.63;;;6.98;nan
9261;BME280;4667;42.726;23.252;2022-12-13T10:55:58;94807.13;;;7.16;nan
9261;BME280;4667;42.726;23.252;2022-12-13T10:58:34;94799.13;;;8.17;nan
9261;BME280;4667;42.726;23.252;2022-12-13T11:01:18;94799.22;;;8.31;nan
9261;BME280;4667;42.726;23.252;2022-12-13T11:03:57;94797.25;;;8.28;nan
9261;BME280;4667;42.726;23.252;2022-12-13T11:06:25;94788.84;;;8.72;nan
9261;BME280;4667;42.726;23.252;2022-12-13T11:08:53;94788.47;;;8.74;nan
9261;BME280;4667;42.726;23.252;2022-12-13T11:11:26;94791.53;;;8.47;nan
9261;BME280;4667;42.726;23.252;2022-12-13T11:13:57;94780.72;;;8.37;nan
9261;BME280;4667;42.726;23.252;2022-12-13T11:16:30;94779.97;;;8.61;nan
9261;BME280;4667;42.726;23.252;2022-12-13T11:19:02;94777.28;;;8.72;nan
9261;BME280;4667;42.726;23.252;2022-12-13T11:21:32;94778.81;;;8.97;nan
9261;BME280;4667;42.726;23.252;2022-12-13T11:24:01;94770.69;;;9.12;nan
9261;BME280;4667;42.726;23.252;2022-12-13T11:26:30;94771.44;;;9.26;nan
9261;BME280;4667;42.726;23.252;2022-12-13T11:32:12;94786.03;;;9.64;nan
9261;BME280;4667;42.726;23.252;2022-12-13T11:34:47;94785.25;;;9.71;nan
9261;BME280;4667;42.726;23.252;2022-12-13T11:37:24;94783.75;;;9.56;nan
9261;BME280;4667;42.726;23.252;2022-12-13T11:39:57;94778.81;;;8.83;nan
9261;BME280;4667;42.726;23.252;2022-12-13T11:42:28;94771.78;;;9.53;nan
9261;BME280;4667;42.726;23.252;2022-12-13T11:45:02;94772.00;;;9.98;nan
9261;BME280;4667;42.726;23.252;2022-12-13T11:47:36;94775.88;;;9.90;nan
9261;BME280;4667;42.726;23.252;2022-12-13T11:50:14;94770.66;;;9.47;nan
9261;BME280;4667;42.726;23.252;2022-12-13T11:52:47;94772.16;;;9.59;nan
9261;BME280;4667;42.726;23.252;2022-12-13T11:55:17;94773.31;;;9.54;nan
9261;BME280;4667;42.726;23.252;2022-12-13T11:57:51;94763.72;;;9.32;nan
9261;BME280;4667;42.726;23.252;2022-12-13T12:00:29;94764.13;;;9.23;nan
9261;BME280;4667;42.726;23.252;2022-12-13T12:03:05;94749.81;;;9.40;nan
9261;BME280;4667;42.726;23.252;2022-12-13T12:05:41;94759.91;;;8.94;nan
9261;BME280;4667;42.726;23.252;2022-12-13T12:08:11;94753.34;;;8.77;nan
9261;BME280;4667;42.726;23.252;2022-12-13T12:10:44;94761.78;;;8.30;nan
9261;BME280;4667;42.726;23.252;2022-12-13T12:13:16;94761.38;;;8.24;nan
9261;BME280;4667;42.726;23.252;2022-12-13T12:15:51;94754.16;;;8.64;nan
9261;BME280;4667;42.726;23.252;2022-12-13T12:18:22;94760.59;;;8.09;nan
9261;BME280;4667;42.726;23.252;2022-12-13T12:21:02;94748.59;;;7.86;nan
9261;BME280;4667;42.726;23.252;2022-12-13T12:23:41;94749.88;;;8.38;nan
9261;BME280;4667;42.726;23.252;2022-12-13T12:26:13;94753.69;;;8.15;nan
9261;BME280;4667;42.726;23.252;2022-12-13T12:29:09;94751.81;;;8.55;nan
9261;BME280;4667;42.726;23.252;2022-12-13T12:31:51;94760.63;;;8.20;nan
9261;BME280;4667;42.726;23.252;2022-12-13T12:34:30;94759.72;;;7.80;nan
9261;BME280;4667;42.726;23.252;2022-12-13T12:37:18;94752.19;;;8.39;nan
9261;BME280;4667;42.726;23.252;2022-12-13T12:40:18;94757.41;;;7.79;nan
9261;BME280;4667;42.726;23.252;2022-12-13T12:42:55;94757.69;;;7.49;nan
9261;BME280;4667;42.726;23.252;2022-12-13T12:45:40;94758.38;;;7.32;nan
9261;BME280;4667;42.726;23.252;2022-12-13T12:51:19;94762.00;;;6.95;nan
9261;BME280;4667;42.726;23.252;2022-12-13T12:53:57;94783.13;;;6.46;nan
9261;BME280;4667;42.726;23.252;2022-12-13T12:56:38;94778.31;;;6.66;nan
9261;BME280;4667;42.726;23.252;2022-12-13T12:59:12;94776.91;;;6.86;nan
9261;BME280;4667;42.726;23.252;2022-12-13T13:01:52;94775.50;;;7.03;nan
9261;BME280;4667;42.726;23.252;2022-12-13T13:04:28;94778.03;;;6.81;nan
9261;BME280;4667;42.726;23.252;2022-12-13T13:07:06;94780.19;;;7.16;nan
9261;BME280;4667;42.726;23.252;2022-12-13T13:09:40;94779.56;;;7.41;nan
9261;BME280;4667;42.726;23.252;2022-12-13T13:12:15;94786.56;;;7.52;nan
9261;BME280;4667;42.726;23.252;2022-12-13T13:14:58;94801.63;;;7.64;nan
9261;BME280;4667;42.726;23.252;2022-12-13T13:17:45;94807.13;;;7.13;nan
9261;BME280;4667;42.726;23.252;2022-12-13T13:20:19;94822.03;;;6.55;nan
9261;BME280;4667;42.726;23.252;2022-12-13T13:22:47;94832.09;;;5.92;nan
9261;BME280;4667;42.726;23.252;2022-12-13T13:25:27;94842.34;;;5.26;nan
9261;BME280;4667;42.726;23.252;2022-12-13T13:28:03;94842.00;;;5.28;nan
9261;BME280;4667;42.726;23.252;2022-12-13T13:30:32;94836.63;;;5.28;nan
9261;BME280;4667;42.726;23.252;2022-12-13T13:33:00;94828.97;;;4.55;nan
9261;BME280;4667;42.726;23.252;2022-12-13T13:35:51;94836.22;;;4.54;nan
9261;BME280;4667;42.726;23.252;2022-12-13T13:44:53;94839.22;;;3.88;nan
9261;BME280;4667;42.726;23.252;2022-12-13T13:47:34;94830.97;;;3.58;nan
9261;BME280;4667;42.726;23.252;2022-12-13T13:50:29;94822.31;;;3.64;nan
9261;BME280;4667;42.726;23.252;2022-12-13T13:53:22;94808.91;;;3.84;nan
9261;BME280;4667;42.726;23.252;2022-12-13T13:56:00;94806.59;;;3.82;nan
9261;BME280;4667;42.726;23.252;2022-12-13T13:59:19;94804.06;;;3.70;nan
9261;BME280;4667;42.726;23.252;2022-12-13T14:08:36;94792.88;;;3.45;nan
9261;BME280;4667;42.726;23.252;2022-12-13T14:11:45;94782.56;;;3.66;nan
9261;BME280;4667;42.726;23.252;2022-12-13T14:20:42;94799.53;;;3.36;nan
9261;BME280;4667;42.726;23.252;2022-12-13T14:23:29;94780.66;;;3.28;nan
9261;BME280;4667;42.726;23.252;2022-12-13T14:26:23;94782.31;;;3.17;nan
9261;BME280;4667;42.726;23.252;2022-12-13T14:28:55;94782.75;;;3.19;nan
9261;BME280;4667;42.726;23.252;2022-12-13T14:31:24;94778.09;;;3.16;nan
9261;BME280;4667;42.726;23.252;2022-12-13T14:33:55;94779.09;;;3.08;nan
9261;BME280;4667;42.726;23.252;2022-12-13T14:36:29;94783.84;;;2.99;nan
9261;BME280;4667;42.726;23.252;2022-12-13T14:39:00;94786.34;;;2.92;nan
9261;BME280;4667;42.726;23.252;2022-12-13T14:41:28;94780.44;;;2.83;nan
9261;BME280;4667;42.726;23.252;2022-12-13T14:44:12;94780.59;;;2.74;nan
9261;BME280;4667;42.726;23.252;2022-12-13T14:46:49;94782.78;;;2.69;nan
9261;BME280;4667;42.726;23.252;2022-12-13T14:49:17;94793.47;;;2.69;nan